This is the latest recevied weather packets stored in our database for station/object KY4EF. If no packets are shown the sender has not sent any weather packets the latest 10 day(s).
| Time | Temp. | Humidity | Pressure | Rain* | Wind** | Luminosity | Snow |
|---|---|---|---|---|---|---|---|
| 1777834411 | 20.56° C | 38% | 1016.7 hPa | 0 mm | - | 695 W/m² | - |
| 1777834111 | 21.11° C | 35% | 1016.8 hPa | 0 mm | - | 700 W/m² | - |
| 1777833808 | 20.56° C | 38% | 1016.8 hPa | 0 mm | - | 707 W/m² | - |
| 1777833503 | 20.56° C | 37% | 1017.1 hPa | 0 mm | - | 712 W/m² | - |
| 1777833201 | 19.44° C | 38% | 1017.1 hPa | 0 mm | - | 718 W/m² | - |
| 1777832898 | 20° C | 38% | 1017.2 hPa | 0 mm | - | 722 W/m² | - |
| 1777832598 | 20.56° C | 36% | 1017.2 hPa | 0 mm | - | 723 W/m² | - |
| 1777832294 | 20° C | 39% | 1017.2 hPa | 0 mm | - | 727 W/m² | - |
| 1777831991 | 21.67° C | 34% | 1017.2 hPa | 0 mm | - | 730 W/m² | - |
| 1777831687 | 20.56° C | 38% | 1017.2 hPa | 0 mm | - | 733 W/m² | - |
| 1777831386 | 19.44° C | 38% | 1017.1 hPa | 0 mm | - | 736 W/m² | - |
| 1777831081 | 20.56° C | 37% | 1017.6 hPa | 0 mm | - | 738 W/m² | - |
| 1777830780 | 19.44° C | 37% | 1017.2 hPa | 0 mm | - | 741 W/m² | - |
| 1777830475 | 18.89° C | 37% | 1017.4 hPa | 0 mm | - | 743 W/m² | - |
| 1777830173 | 19.44° C | 37% | 1017.2 hPa | 0 mm | - | 742 W/m² | - |
| 1777829868 | 18.89° C | 39% | 1017.4 hPa | 0 mm | - | 744 W/m² | - |
| 1777829564 | 18.89° C | 38% | 1017.6 hPa | 0 mm | - | 745 W/m² | - |
| 1777829261 | 17.22° C | 43% | 1017.7 hPa | 0 mm | - | 746 W/m² | - |
| 1777828958 | 18.89° C | 37% | 1017.7 hPa | 0 mm | - | 744 W/m² | - |
| 1777828655 | 18.33° C | 39% | 1017.8 hPa | 0 mm | - | 743 W/m² | - |
| 1777828352 | 18.89° C | 37% | 1018 hPa | 0 mm | - | 740 W/m² | - |
| 1777828049 | 20° C | 39% | 1017.9 hPa | 0 mm | - | 736 W/m² | - |
| 1777827746 | 18.89° C | 40% | 1018 hPa | 0 mm | - | 736 W/m² | - |
| 1777827443 | 18.89° C | 41% | 1018.1 hPa | 0 mm | - | 734 W/m² | - |
| 1777827140 | 18.33° C | 38% | 1018.1 hPa | 0 mm | - | 732 W/m² | - |
* Rain latest hour (hover to see other rain measurements)
** Current wind speed in m/s (hover to see current wind gust speed)